createdAt,value
2018-06-02T00:00:52.272Z,92.60
2018-06-02T00:03:19.841Z,92.60
2018-06-02T00:05:47.472Z,92.50
2018-06-02T00:08:15.106Z,92.90
2018-06-02T00:10:42.700Z,93.00
2018-06-02T00:13:10.318Z,93.00
2018-06-02T00:15:37.978Z,93.20
2018-06-02T00:18:06.317Z,93.10
2018-06-02T00:20:33.960Z,93.10
2018-06-02T00:23:01.540Z,92.90
2018-06-02T00:25:29.123Z,93.00
2018-06-02T00:27:57.528Z,93.00
2018-06-02T00:30:25.104Z,93.00
2018-06-02T00:32:52.760Z,93.00
2018-06-02T00:35:20.368Z,93.10
2018-06-02T00:37:47.956Z,93.20
2018-06-02T00:40:16.336Z,93.20
2018-06-02T00:42:44.721Z,93.20
2018-06-02T00:45:13.129Z,93.40
2018-06-02T00:47:41.488Z,93.50
2018-06-02T00:50:09.086Z,93.50
2018-06-02T00:52:36.729Z,93.60
2018-06-02T00:55:07.949Z,93.50
2018-06-02T00:57:35.544Z,93.30
2018-06-02T01:00:03.930Z,93.70
2018-06-02T01:02:31.573Z,93.70
2018-06-02T01:04:59.161Z,94.10
2018-06-02T01:07:26.798Z,94.20
2018-06-02T01:09:54.397Z,94.20
2018-06-02T01:12:24.287Z,94.20
2018-06-02T01:14:54.457Z,94.20
2018-06-02T01:17:25.329Z,94.70
2018-06-02T01:19:55.887Z,94.70
2018-06-02T01:22:25.780Z,94.80
2018-06-02T01:24:55.440Z,94.80
2018-06-02T01:27:26.307Z,94.60
2018-06-02T01:29:55.985Z,94.90
2018-06-02T01:32:25.800Z,94.70
2018-06-02T01:34:53.409Z,94.70
2018-06-02T01:37:21.027Z,94.80
2018-06-02T01:39:48.651Z,94.90
2018-06-02T01:42:16.291Z,94.80
2018-06-02T01:44:43.886Z,94.60
2018-06-02T01:47:11.492Z,94.70
2018-06-02T01:49:39.141Z,94.60
2018-06-02T01:52:06.745Z,94.60
2018-06-02T01:54:34.342Z,95.20
2018-06-02T01:57:01.986Z,95.00
2018-06-02T01:59:29.582Z,95.20
2018-06-02T02:01:57.977Z,95.70
2018-06-02T02:04:25.606Z,95.70
2018-06-02T02:06:53.249Z,95.70
2018-06-02T02:09:20.877Z,95.90
2018-06-02T02:11:48.471Z,95.70
2018-06-02T02:14:16.087Z,95.60
2018-06-02T02:16:44.501Z,95.40
2018-06-02T02:19:12.123Z,95.40
2018-06-02T02:21:40.482Z,95.70
2018-06-02T02:24:09.607Z,95.80
2018-06-02T02:26:37.983Z,96.00
2018-06-02T02:29:06.370Z,96.10
2018-06-02T02:31:34.001Z,96.00
2018-06-02T02:34:02.395Z,96.00
2018-06-02T02:36:30.891Z,95.90
2018-06-02T02:38:58.516Z,95.90
2018-06-02T02:41:26.103Z,95.80
2018-06-02T02:43:54.486Z,95.90
2018-06-02T02:46:22.874Z,95.90
2018-06-02T02:48:51.273Z,96.20
2018-06-02T02:51:18.859Z,96.10
2018-06-02T02:53:46.440Z,96.60
2018-06-02T02:56:14.055Z,96.40
2018-06-02T02:58:41.684Z,96.20
2018-06-02T03:01:10.075Z,96.80
2018-06-02T03:03:37.714Z,96.70
2018-06-02T03:06:05.299Z,96.70
2018-06-02T03:08:33.683Z,96.60
2018-06-02T03:11:01.323Z,96.60
2018-06-02T03:13:28.922Z,96.50
2018-06-02T03:15:56.556Z,96.50
2018-06-02T03:18:24.924Z,96.40
2018-06-02T03:20:53.337Z,96.30
2018-06-02T03:23:20.933Z,96.60
2018-06-02T03:25:48.556Z,96.20
2018-06-02T03:28:16.175Z,96.30
2018-06-02T03:30:43.771Z,96.00
2018-06-02T03:33:12.173Z,96.20
2018-06-02T03:35:39.750Z,96.20
2018-06-02T03:38:07.343Z,96.50
2018-06-02T03:40:34.978Z,96.50
2018-06-02T03:43:02.567Z,96.70
2018-06-02T03:45:30.184Z,96.80
2018-06-02T03:47:57.832Z,96.70
2018-06-02T03:50:25.477Z,96.80
2018-06-02T03:52:53.826Z,96.80
2018-06-02T03:55:21.430Z,96.80
2018-06-02T03:57:49.058Z,96.80
2018-06-02T04:00:16.650Z,96.70
2018-06-02T04:02:44.291Z,96.40
2018-06-02T04:05:11.884Z,96.50
2018-06-02T04:07:39.530Z,96.30
2018-06-02T04:10:07.130Z,96.60
2018-06-02T04:12:34.762Z,96.40
2018-06-02T04:15:02.394Z,96.60
2018-06-02T04:17:30.760Z,96.90
2018-06-02T04:19:58.401Z,96.90
2018-06-02T04:22:26.030Z,97.20
2018-06-02T04:24:53.635Z,97.30
2018-06-02T04:27:21.253Z,97.10
2018-06-02T04:29:48.889Z,97.10
2018-06-02T04:32:16.493Z,97.00
2018-06-02T04:34:44.130Z,97.10
2018-06-02T04:37:12.474Z,96.80
2018-06-02T04:39:40.054Z,96.80
2018-06-02T04:42:07.676Z,96.50
2018-06-02T04:44:35.293Z,96.50
2018-06-02T04:47:03.657Z,96.70
2018-06-02T04:49:32.046Z,96.80
2018-06-02T04:52:00.446Z,96.90
2018-06-02T04:54:28.040Z,96.80
2018-06-02T04:56:55.669Z,96.70
2018-06-02T04:59:23.273Z,96.60
2018-06-02T05:01:50.892Z,96.40
2018-06-02T05:04:18.518Z,96.20
2018-06-02T05:06:46.922Z,96.20
2018-06-02T05:09:14.527Z,96.20
2018-06-02T05:11:42.167Z,96.20
2018-06-02T05:14:09.786Z,95.90
2018-06-02T05:16:38.170Z,96.00
2018-06-02T05:19:05.789Z,95.90
2018-06-02T05:21:33.388Z,96.00
2018-06-02T05:24:01.778Z,95.80
2018-06-02T05:26:30.136Z,95.10
2018-06-02T05:28:57.794Z,95.10
2018-06-02T05:31:25.398Z,94.80
2018-06-02T05:33:53.123Z,95.10
2018-06-02T05:36:21.510Z,95.10
2018-06-02T05:38:49.973Z,95.10
2018-06-02T05:41:17.599Z,94.90
2018-06-02T05:43:45.196Z,94.90
2018-06-02T05:46:12.824Z,94.80
2018-06-02T05:48:40.408Z,94.80
2018-06-02T05:51:08.054Z,94.50
2018-06-02T05:53:35.673Z,94.70
2018-06-02T05:56:04.050Z,94.60
2018-06-02T05:58:31.658Z,94.60
2018-06-02T06:00:59.303Z,95.00
2018-06-02T06:03:26.887Z,95.00
2018-06-02T06:05:54.476Z,94.70
2018-06-02T06:08:22.098Z,94.80
2018-06-02T06:10:50.525Z,95.10
2018-06-02T06:13:18.144Z,95.00
2018-06-02T06:15:45.762Z,94.80
2018-06-02T06:18:13.394Z,94.80
2018-06-02T06:20:40.967Z,95.10
2018-06-02T06:23:08.591Z,95.30
2018-06-02T06:25:36.186Z,95.10
2018-06-02T06:28:03.835Z,94.60
2018-06-02T06:30:31.466Z,94.80
2018-06-02T06:32:59.171Z,94.70
2018-06-02T06:35:26.777Z,94.60
2018-06-02T06:37:55.136Z,94.00
2018-06-02T06:40:23.538Z,93.60
2018-06-02T06:42:51.927Z,92.80
2018-06-02T06:45:19.519Z,92.80
2018-06-02T06:47:47.099Z,93.20
2018-06-02T06:50:14.724Z,92.80
2018-06-02T06:52:42.305Z,93.10
2018-06-02T06:55:09.928Z,92.40
2018-06-02T06:57:37.576Z,91.80
2018-06-02T07:00:05.162Z,92.10
2018-06-02T07:02:32.761Z,91.80
2018-06-02T07:05:00.399Z,91.80
2018-06-02T07:07:27.996Z,91.80
2018-06-02T07:09:55.630Z,91.10
2018-06-02T07:12:23.228Z,91.20
2018-06-02T07:14:50.804Z,91.60
2018-06-02T07:17:19.215Z,90.60
2018-06-02T07:19:46.794Z,90.70
2018-06-02T07:22:15.192Z,91.90
2018-06-02T07:24:42.794Z,91.90
2018-06-02T07:27:10.419Z,91.50
2018-06-02T07:29:38.051Z,89.50
2018-06-02T07:32:05.623Z,89.90
2018-06-02T07:34:33.213Z,88.50
2018-06-02T07:37:01.640Z,86.90
2018-06-02T07:39:29.237Z,86.90
2018-06-02T07:41:57.701Z,87.70
2018-06-02T07:44:25.368Z,86.60
2018-06-02T07:46:53.011Z,86.10
2018-06-02T07:49:20.673Z,86.30
2018-06-02T07:51:48.252Z,85.90
2018-06-02T07:54:15.898Z,85.30
2018-06-02T07:56:43.518Z,86.10
2018-06-02T07:59:11.146Z,86.90
2018-06-02T08:01:38.749Z,85.20
2018-06-02T08:04:07.145Z,84.60
2018-06-02T08:06:34.811Z,84.60
2018-06-02T08:09:02.434Z,84.80
2018-06-02T08:11:30.017Z,84.50
2018-06-02T08:13:58.424Z,84.90
2018-06-02T08:16:26.014Z,84.90
2018-06-02T08:18:53.601Z,84.00
2018-06-02T08:21:21.209Z,84.50
2018-06-02T08:23:48.841Z,82.60
2018-06-02T08:26:17.242Z,83.10
2018-06-02T08:28:44.885Z,83.10
2018-06-02T08:31:13.251Z,83.60
2018-06-02T08:33:41.666Z,83.20
2018-06-02T08:36:10.020Z,84.30
2018-06-02T08:38:38.405Z,80.20
2018-06-02T08:41:06.753Z,80.80
2018-06-02T08:43:34.418Z,80.70
2018-06-02T08:46:02.019Z,77.10
2018-06-02T08:48:29.632Z,77.60
2018-06-02T08:50:57.269Z,75.80
2018-06-02T08:53:24.858Z,76.60
2018-06-02T08:55:53.355Z,76.40
2018-06-02T08:58:21.750Z,75.70
2018-06-02T09:00:50.103Z,74.10
2018-06-02T09:03:17.757Z,74.10
2018-06-02T09:05:45.346Z,75.80
2018-06-02T09:08:13.768Z,75.40
2018-06-02T09:10:41.391Z,75.30
2018-06-02T09:13:09.803Z,72.50
2018-06-02T09:15:37.441Z,73.00
2018-06-02T09:18:05.113Z,72.80
2018-06-02T09:20:33.509Z,75.30
2018-06-02T09:23:01.146Z,75.30
2018-06-02T09:25:28.766Z,76.20
2018-06-02T09:27:57.148Z,75.60
2018-06-02T09:30:26.479Z,75.60
2018-06-02T09:32:54.869Z,74.90
2018-06-02T09:35:23.209Z,75.90
2018-06-02T09:37:50.844Z,75.80
2018-06-02T09:40:18.442Z,74.50
2018-06-02T09:42:46.124Z,73.80
2018-06-02T09:45:14.510Z,73.80
2018-06-02T09:47:42.895Z,72.20
2018-06-02T09:50:11.279Z,72.70
2018-06-02T09:52:39.694Z,71.70
2018-06-02T09:55:07.280Z,71.70
2018-06-02T09:57:34.862Z,73.80
2018-06-02T10:00:02.487Z,71.50
2018-06-02T10:02:30.128Z,70.60
2018-06-02T10:04:58.498Z,68.90
2018-06-02T10:07:26.079Z,68.80
2018-06-02T10:09:53.702Z,71.60
2018-06-02T10:12:21.368Z,68.90
2018-06-02T10:14:49.765Z,66.90
2018-06-02T10:17:17.392Z,66.90
2018-06-02T10:19:44.998Z,65.60
2018-06-02T10:22:12.626Z,64.80
2018-06-02T10:24:40.978Z,66.60
2018-06-02T10:27:08.606Z,66.50
2018-06-02T10:29:36.281Z,66.30
2018-06-02T10:32:03.902Z,67.70
2018-06-02T10:34:32.245Z,64.70
2018-06-02T10:36:59.866Z,65.30
2018-06-02T10:39:27.499Z,65.10
2018-06-02T10:41:55.955Z,67.10
2018-06-02T10:44:23.531Z,67.10
2018-06-02T10:46:51.904Z,63.70
2018-06-02T10:49:19.530Z,63.60
2018-06-02T10:51:47.137Z,64.70
2018-06-02T10:54:15.532Z,64.30
2018-06-02T10:56:43.918Z,65.70
2018-06-02T10:59:11.497Z,65.60
2018-06-02T11:01:39.142Z,63.90
2018-06-02T11:04:06.736Z,62.20
2018-06-02T11:06:34.350Z,63.30
2018-06-02T11:09:02.725Z,64.00
2018-06-02T11:11:31.100Z,63.50
2018-06-02T11:13:59.571Z,62.60
2018-06-02T11:16:27.959Z,63.10
2018-06-02T11:18:56.358Z,62.40
2018-06-02T11:21:24.701Z,62.60
2018-06-02T11:23:52.312Z,62.60
2018-06-02T11:26:19.939Z,63.50
2018-06-02T11:28:47.565Z,62.80
2018-06-02T11:31:15.141Z,63.30
2018-06-02T11:33:42.748Z,61.30
2018-06-02T11:36:10.399Z,63.10
2018-06-02T11:38:38.782Z,61.70
2018-06-02T11:41:07.181Z,62.50
2018-06-02T11:43:34.827Z,62.50
2018-06-02T11:46:03.182Z,63.30
2018-06-02T11:48:30.797Z,63.10
2018-06-02T11:50:58.426Z,62.00
2018-06-02T11:53:26.007Z,58.00
2018-06-02T11:55:53.605Z,59.40
2018-06-02T11:58:21.267Z,60.20
2018-06-02T12:00:48.950Z,60.20
2018-06-02T12:03:16.559Z,61.30
2018-06-02T12:05:44.222Z,60.70
2018-06-02T12:08:11.861Z,60.20
2018-06-02T12:10:39.445Z,60.80
2018-06-02T12:13:07.050Z,63.30
2018-06-02T12:15:34.672Z,64.80
2018-06-02T12:18:02.294Z,66.20
2018-06-02T12:20:30.720Z,63.20
2018-06-02T12:22:58.314Z,63.00
2018-06-02T12:25:25.949Z,61.80
2018-06-02T12:27:53.556Z,59.40
2018-06-02T12:30:21.955Z,61.90
2018-06-02T12:32:50.316Z,62.50
2018-06-02T12:35:18.719Z,61.70
2018-06-02T12:37:46.306Z,61.70
2018-06-02T12:40:13.956Z,61.90
2018-06-02T12:42:41.548Z,63.30
2018-06-02T12:45:09.178Z,63.60
2018-06-02T12:47:36.923Z,63.30
2018-06-02T12:50:04.529Z,63.30
2018-06-02T12:52:32.185Z,62.80
2018-06-02T12:54:59.851Z,61.20
2018-06-02T12:57:27.455Z,59.10
2018-06-02T12:59:55.879Z,59.80
2018-06-02T13:02:23.476Z,59.00
2018-06-02T13:04:51.049Z,59.90
2018-06-02T13:07:18.777Z,59.60
2018-06-02T13:09:46.346Z,61.40
2018-06-02T13:12:13.980Z,57.60
2018-06-02T13:14:41.595Z,56.90
2018-06-02T13:17:09.223Z,57.60
2018-06-02T13:19:36.828Z,58.50
2018-06-02T13:22:04.502Z,57.60
2018-06-02T13:24:32.874Z,59.90
2018-06-02T13:27:01.303Z,59.40
2018-06-02T13:29:28.894Z,59.30
2018-06-02T13:31:56.531Z,58.30
2018-06-02T13:34:24.139Z,57.50
2018-06-02T13:36:51.775Z,57.50
2018-06-02T13:39:19.389Z,58.00
2018-06-02T13:41:46.975Z,58.40
2018-06-02T13:44:14.648Z,59.00
2018-06-02T13:46:42.294Z,55.40
2018-06-02T13:49:10.291Z,54.50
2018-06-02T13:51:37.945Z,52.10
2018-06-02T13:54:05.551Z,51.80
2018-06-02T13:56:33.941Z,55.60
2018-06-02T13:59:01.581Z,55.50
2018-06-02T14:01:29.971Z,56.80
2018-06-02T14:03:58.382Z,57.80
2018-06-02T14:06:25.968Z,57.80
2018-06-02T14:08:53.581Z,59.60
2018-06-02T14:11:21.249Z,57.90
2018-06-02T14:13:49.626Z,60.00
2018-06-02T14:16:17.975Z,59.50
2018-06-02T14:18:45.625Z,59.50
2018-06-02T14:21:13.209Z,57.90
2018-06-02T14:23:40.827Z,57.20
2018-06-02T14:26:08.406Z,57.30
2018-06-02T14:28:36.039Z,57.60
2018-06-02T14:31:03.637Z,56.20
2018-06-02T14:33:31.252Z,58.20
2018-06-02T14:35:58.857Z,55.70
2018-06-02T14:38:26.560Z,55.40
2018-06-02T14:40:55.008Z,54.40
2018-06-02T14:43:22.693Z,54.40
2018-06-02T14:45:51.050Z,56.70
2018-06-02T14:48:18.633Z,56.70
2018-06-02T14:50:47.050Z,58.20
2018-06-02T14:53:14.638Z,58.10
2018-06-02T14:55:42.213Z,58.10
2018-06-02T14:58:10.718Z,58.50
2018-06-02T15:00:39.138Z,59.50
2018-06-02T15:03:06.721Z,59.40
2018-06-02T15:05:34.356Z,58.10
2018-06-02T15:08:01.989Z,57.20
2018-06-02T15:10:30.390Z,56.50
2018-06-02T15:12:57.975Z,56.50
2018-06-02T15:15:25.578Z,56.40
2018-06-02T15:17:53.966Z,55.40
2018-06-02T15:20:21.571Z,55.40
2018-06-02T15:22:49.168Z,55.40
2018-06-02T15:25:16.829Z,55.00
2018-06-02T15:27:44.465Z,54.90
2018-06-02T15:30:12.125Z,53.30
2018-06-02T15:32:39.717Z,52.80
2018-06-02T15:35:07.380Z,53.10
2018-06-02T15:37:35.877Z,55.40
2018-06-02T15:40:04.331Z,54.10
2018-06-02T15:42:34.403Z,54.10
2018-06-02T15:45:02.632Z,53.60
2018-06-02T15:47:30.309Z,54.70
2018-06-02T15:49:58.685Z,54.30
2018-06-02T15:52:26.330Z,54.20
2018-06-02T15:54:53.939Z,53.70
2018-06-02T15:57:21.556Z,53.40
2018-06-02T15:59:49.897Z,54.10
2018-06-02T16:02:17.525Z,54.10
2018-06-02T16:04:45.321Z,54.60
2018-06-02T16:07:12.941Z,53.60
2018-06-02T16:09:40.588Z,54.70
2018-06-02T16:12:09.002Z,56.90
2018-06-02T16:14:36.931Z,56.80
2018-06-02T16:17:04.552Z,56.80
2018-06-02T16:19:32.189Z,57.20
2018-06-02T16:21:59.826Z,58.10
2018-06-02T16:24:27.422Z,59.40
2018-06-02T16:26:55.037Z,58.80
2018-06-02T16:29:22.658Z,57.40
2018-06-02T16:31:50.306Z,57.60
2018-06-02T16:34:17.897Z,56.50
2018-06-02T16:36:45.514Z,56.50
2018-06-02T16:39:13.870Z,56.00
2018-06-02T16:41:41.491Z,56.00
2018-06-02T16:44:09.106Z,56.50
2018-06-02T16:46:37.504Z,55.50
2018-06-02T16:49:05.135Z,55.50
2018-06-02T16:51:32.725Z,55.70
2018-06-02T16:54:01.073Z,57.70
2018-06-02T16:56:28.726Z,57.70
2018-06-02T16:58:57.442Z,55.30
2018-06-02T17:01:25.175Z,55.90
2018-06-02T17:03:52.754Z,56.10
2018-06-02T17:06:20.366Z,55.90
2018-06-02T17:08:47.983Z,56.90
2018-06-02T17:11:15.612Z,56.20
2018-06-02T17:13:43.720Z,57.50
2018-06-02T17:16:11.344Z,57.00
2018-06-02T17:18:38.935Z,57.40
2018-06-02T17:21:08.150Z,57.80
2018-06-02T17:23:36.609Z,58.00
2018-06-02T17:26:04.244Z,58.00
2018-06-02T17:28:31.846Z,57.70
2018-06-02T17:31:00.201Z,58.40
2018-06-02T17:33:27.835Z,58.00
2018-06-02T17:35:55.416Z,58.50
2018-06-02T17:38:23.162Z,57.90
2018-06-02T17:40:50.777Z,57.00
2018-06-02T17:43:18.364Z,56.70
2018-06-02T17:45:45.972Z,55.90
2018-06-02T17:48:13.586Z,56.60
2018-06-02T17:50:41.229Z,56.40
2018-06-02T17:53:08.851Z,56.00
2018-06-02T17:55:36.429Z,56.90
2018-06-02T17:58:04.041Z,56.30
2018-06-02T18:00:31.680Z,56.40
2018-06-02T18:03:00.134Z,56.00
2018-06-02T18:05:27.784Z,56.50
2018-06-02T18:07:55.393Z,56.60
2018-06-02T18:10:23.765Z,57.20
2018-06-02T18:12:52.146Z,56.40
2018-06-02T18:15:19.729Z,56.40
2018-06-02T18:17:48.149Z,57.60
2018-06-02T18:20:15.791Z,57.60
2018-06-02T18:22:43.372Z,57.80
2018-06-02T18:25:10.986Z,58.20
2018-06-02T18:27:39.386Z,58.10
2018-06-02T18:30:06.994Z,58.10
2018-06-02T18:32:34.609Z,58.30
2018-06-02T18:35:02.191Z,57.80
2018-06-02T18:37:29.801Z,58.10
2018-06-02T18:39:58.186Z,58.20
2018-06-02T18:42:26.534Z,58.60
2018-06-02T18:44:54.170Z,58.60
2018-06-02T18:47:21.746Z,58.60
2018-06-02T18:49:49.357Z,58.70
2018-06-02T18:52:17.730Z,58.70
2018-06-02T18:54:46.128Z,58.60
2018-06-02T18:57:13.710Z,58.60
2018-06-02T18:59:41.562Z,58.90
2018-06-02T19:02:09.193Z,58.80
2018-06-02T19:04:37.610Z,59.60
2018-06-02T19:07:05.622Z,59.60
2018-06-02T19:09:33.238Z,59.80
2018-06-02T19:12:00.886Z,60.20
2018-06-02T19:14:29.299Z,60.40
2018-06-02T19:16:56.877Z,60.40
2018-06-02T19:19:24.525Z,60.60
2018-06-02T19:21:52.127Z,61.20
2018-06-02T19:24:20.523Z,61.70
2018-06-02T19:26:48.863Z,61.70
2018-06-02T19:29:17.050Z,61.70
2018-06-02T19:31:44.625Z,62.00
2018-06-02T19:34:12.241Z,62.20
2018-06-02T19:36:39.866Z,62.30
2018-06-02T19:39:08.208Z,62.30
2018-06-02T19:41:35.841Z,62.30
2018-06-02T19:44:03.542Z,62.20
2018-06-02T19:46:31.215Z,62.40
2018-06-02T19:48:58.851Z,62.40
2018-06-02T19:51:26.526Z,61.90
2018-06-02T19:53:54.100Z,62.50
2018-06-02T19:56:21.725Z,62.70
2018-06-02T19:58:49.339Z,63.50
2018-06-02T20:01:16.960Z,65.30
2018-06-02T20:03:46.757Z,67.30
2018-06-02T20:06:14.329Z,68.40
2018-06-02T20:08:42.006Z,69.20
2018-06-02T20:11:09.656Z,70.20
2018-06-02T20:13:38.158Z,71.10
2018-06-02T20:16:05.804Z,71.10
2018-06-02T20:18:33.401Z,72.00
2018-06-02T20:21:01.057Z,72.50
2018-06-02T20:23:29.431Z,72.70
2018-06-02T20:25:58.037Z,72.70
2018-06-02T20:28:25.769Z,72.90
2018-06-02T20:30:53.374Z,73.60
2018-06-02T20:33:20.980Z,74.20
2018-06-02T20:35:48.611Z,75.00
2018-06-02T20:38:16.212Z,75.50
2018-06-02T20:40:43.825Z,75.50
2018-06-02T20:43:12.226Z,75.80
2018-06-02T20:45:39.855Z,75.80
2018-06-02T20:48:08.226Z,76.30
2018-06-02T20:50:35.853Z,76.30
2018-06-02T20:53:03.448Z,76.60
2018-06-02T20:55:31.070Z,76.70
2018-06-02T20:57:58.654Z,76.90
2018-06-02T21:00:26.306Z,77.20
2018-06-02T21:02:53.928Z,77.30
2018-06-02T21:05:21.581Z,77.20
2018-06-02T21:07:49.991Z,77.60
2018-06-02T21:10:17.577Z,77.60
2018-06-02T21:12:45.193Z,77.80
2018-06-02T21:15:12.796Z,77.80
2018-06-02T21:17:40.421Z,78.10
2018-06-02T21:20:08.035Z,78.50
2018-06-02T21:22:35.728Z,78.80
2018-06-02T21:25:03.387Z,78.90
2018-06-02T21:27:31.786Z,79.50
2018-06-02T21:30:01.410Z,80.00
2018-06-02T21:32:29.038Z,80.00
2018-06-02T21:34:56.699Z,80.10
2018-06-02T21:37:25.070Z,80.50
2018-06-02T21:39:53.569Z,80.40
2018-06-02T21:42:21.955Z,80.50
2018-06-02T21:44:49.600Z,80.40
2018-06-02T21:47:17.201Z,80.60
2018-06-02T21:49:44.844Z,81.00
2018-06-02T21:52:12.487Z,81.50
2018-06-02T21:54:40.160Z,81.00
2018-06-02T21:57:08.582Z,80.60
2018-06-02T21:59:36.178Z,80.60
2018-06-02T22:02:03.767Z,81.10
2018-06-02T22:04:32.181Z,81.70
2018-06-02T22:06:59.778Z,81.70
2018-06-02T22:09:27.359Z,81.90
2018-06-02T22:11:55.778Z,82.30
2018-06-02T22:14:23.362Z,82.30
2018-06-02T22:16:50.941Z,82.50
2018-06-02T22:19:18.607Z,83.10
2018-06-02T22:21:46.188Z,83.60
2018-06-02T22:24:13.838Z,83.70
2018-06-02T22:26:41.434Z,84.20
2018-06-02T22:29:09.781Z,84.20
2018-06-02T22:31:37.541Z,84.20
2018-06-02T22:34:05.174Z,84.20
2018-06-02T22:36:32.768Z,84.60
2018-06-02T22:39:00.408Z,84.10
2018-06-02T22:41:28.874Z,84.40
2018-06-02T22:43:56.504Z,84.30
2018-06-02T22:46:24.850Z,84.90
2018-06-02T22:48:52.481Z,84.80
2018-06-02T22:51:31.932Z,85.70
2018-06-02T22:53:59.595Z,85.40
2018-06-02T22:56:27.238Z,85.60
2018-06-02T22:58:54.853Z,85.60
2018-06-02T23:01:22.441Z,85.90
2018-06-02T23:03:50.054Z,86.30
2018-06-02T23:06:18.473Z,86.40
2018-06-02T23:08:46.877Z,86.80
2018-06-02T23:11:14.530Z,86.70
2018-06-02T23:13:42.473Z,87.00
2018-06-02T23:16:10.153Z,86.70
2018-06-02T23:18:40.174Z,86.90
2018-06-02T23:21:07.859Z,87.30
2018-06-02T23:23:39.934Z,87.50
2018-06-02T23:26:08.356Z,87.80
2018-06-02T23:28:40.947Z,87.70
2018-06-02T23:31:09.453Z,88.20
2018-06-02T23:33:37.110Z,87.90
2018-06-02T23:36:06.077Z,88.70
2018-06-02T23:38:34.114Z,88.70
2018-06-02T23:41:07.704Z,88.70
2018-06-02T23:43:35.339Z,89.20
2018-06-02T23:46:03.683Z,89.30
2018-06-02T23:48:31.302Z,89.20
2018-06-02T23:50:58.923Z,90.00
2018-06-02T23:53:27.335Z,90.00
2018-06-02T23:55:54.933Z,90.00
2018-06-02T23:58:22.564Z,90.00
